Time;durP1;ratioP1;P1;durP2;ratioP2;P2;SDS_P1;SDS_P2;PMS_P1;PMS_P2;Temp;Humidity;BMP_temperature;BMP_pressure;BME280_temperature;BME280_humidity;BME280_pressure;Samples;Min_cycle;Max_cycle;Signal;HPM_P1;HPM_P2
2024/03/22 00:00:18;;;;;;;20.65;13.55;;;;;;;;;;5828095;28;20057;-71
2024/03/22 00:03:07;;;;;;;15.60;11.35;;;;;;;;;;5828106;28;20053;-71
2024/03/22 00:05:57;;;;;;;21.33;11.52;;;;;;;;;;5861158;28;20046;-71
2024/03/22 00:08:47;;;;;;;24.83;12.77;;;;;;;;;;5844057;28;20038;-71
2024/03/22 00:11:39;;;;;;;26.02;12.35;;;;;;;;;;5844257;28;20057;-71
2024/03/22 00:14:29;;;;;;;19.77;14.13;;;;;;;;;;5860658;28;20051;-71
2024/03/22 00:17:19;;;;;;;20.15;12.85;;;;;;;;;;5877301;28;20092;-72
2024/03/22 00:20:09;;;;;;;22.58;13.13;;;;;;;;;;5860391;28;20049;-71
2024/03/22 00:22:59;;;;;;;28.27;13.30;;;;;;;;;;5846018;28;20399;-71
2024/03/22 00:25:48;;;;;;;27.95;14.18;;;;;;;;;;5831981;28;20092;-71
2024/03/22 00:28:38;;;;;;;24.80;13.43;;;;;;;;;;5864789;28;20514;-71
2024/03/22 00:31:28;;;;;;;26.05;13.23;;;;;;;;;;5864766;28;20044;-71
2024/03/22 00:34:19;;;;;;;25.42;13.02;;;;;;;;;;5831968;28;20500;-71
2024/03/22 00:37:09;;;;;;;25.35;14.40;;;;;;;;;;5847660;28;20069;-71
2024/03/22 00:39:59;;;;;;;36.20;16.20;;;;;;;;;;5848574;28;20057;-71
2024/03/22 00:42:48;;;;;;;30.60;15.40;;;;;;;;;;5847951;28;20103;-71
2024/03/22 00:45:38;;;;;;;29.65;14.88;;;;;;;;;;5864054;28;20400;-71
2024/03/22 00:48:29;;;;;;;26.60;14.95;;;;;;;;;;5864384;28;20048;-71
2024/03/22 00:51:18;;;;;;;28.75;17.60;;;;;;;;;;5864310;28;20057;-72
2024/03/22 00:54:08;;;;;;;28.27;14.57;;;;;;;;;;5847793;28;20041;-71
2024/03/22 00:56:58;;;;;;;29.77;15.02;;;;;;;;;;5864755;28;20500;-71
2024/03/22 00:59:47;;;;;;;16.85;11.63;;;;;;;;;;5847479;28;20049;-71
2024/03/22 01:02:37;;;;;;;35.08;15.93;;;;;;;;;;5845619;28;20033;-71
2024/03/22 01:05:27;;;;;;;21.92;11.13;;;;;;;;;;5847391;28;20042;-71
2024/03/22 01:08:17;;;;;;;20.42;11.43;;;;;;;;;;5847441;28;20048;-72
2024/03/22 01:11:06;;;;;;;20.13;10.95;;;;;;;;;;5880301;28;20430;-71
2024/03/22 01:13:56;;;;;;;15.80;8.95;;;;;;;;;;5864282;28;20045;-71
2024/03/22 01:16:46;;;;;;;11.75;7.35;;;;;;;;;;5863568;28;20148;-71
2024/03/22 01:19:36;;;;;;;8.25;6.43;;;;;;;;;;5863657;28;20092;-71
2024/03/22 01:22:26;;;;;;;8.63;5.88;;;;;;;;;;5847298;28;20432;-71
2024/03/22 01:25:16;;;;;;;6.82;4.53;;;;;;;;;;5844883;28;20038;-71
2024/03/22 01:28:05;;;;;;;11.40;5.95;;;;;;;;;;5824246;28;20049;-72
2024/03/22 01:30:55;;;;;;;8.05;6.00;;;;;;;;;;5857209;28;20180;-71
2024/03/22 01:33:45;;;;;;;7.38;4.20;;;;;;;;;;5839699;28;20042;-71
2024/03/22 01:36:35;;;;;;;10.43;4.70;;;;;;;;;;5839534;28;20049;-71
2024/03/22 01:39:24;;;;;;;10.82;5.70;;;;;;;;;;5843516;28;20052;-71
2024/03/22 01:42:14;;;;;;;6.50;5.20;;;;;;;;;;5844924;28;20046;-72
2024/03/22 01:45:05;;;;;;;7.90;5.15;;;;;;;;;;5840534;28;20049;-72
2024/03/22 01:47:55;;;;;;;6.78;4.97;;;;;;;;;;5880017;28;20045;-71
2024/03/22 01:50:45;;;;;;;5.28;4.70;;;;;;;;;;5840495;28;20165;-71
2024/03/22 01:53:37;;;;;;;10.07;5.20;;;;;;;;;;5823704;28;20054;-71
2024/03/22 01:56:27;;;;;;;4.60;4.13;;;;;;;;;;5823989;28;20046;-71
2024/03/22 01:59:17;;;;;;;7.70;5.45;;;;;;;;;;5842016;28;20526;-71
2024/03/22 02:02:07;;;;;;;5.97;3.83;;;;;;;;;;5845629;28;20069;-71
2024/03/22 02:04:57;;;;;;;7.32;4.38;;;;;;;;;;5823243;28;20179;-71
2024/03/22 02:07:48;;;;;;;8.00;5.55;;;;;;;;;;5846057;28;20042;-71
2024/03/22 02:10:37;;;;;;;7.13;4.38;;;;;;;;;;5862556;28;20099;-71
2024/03/22 02:13:27;;;;;;;5.07;4.18;;;;;;;;;;5862601;28;20033;-71
2024/03/22 02:16:17;;;;;;;12.43;4.65;;;;;;;;;;5862352;28;20054;-71
2024/03/22 02:19:08;;;;;;;6.97;3.85;;;;;;;;;;5845926;28;20046;-72
2024/03/22 02:21:58;;;;;;;9.13;4.93;;;;;;;;;;5846877;28;20045;-71
2024/03/22 02:24:47;;;;;;;9.25;5.22;;;;;;;;;;5845622;28;20042;-71
2024/03/22 02:27:39;;;;;;;27.05;4.97;;;;;;;;;;5862043;28;20048;-71
2024/03/22 02:30:28;;;;;;;5.80;3.97;;;;;;;;;;5845745;28;20063;-71
2024/03/22 02:33:18;;;;;;;22.58;5.55;;;;;;;;;;5862058;28;20053;-71
2024/03/22 02:36:09;;;;;;;8.60;4.97;;;;;;;;;;5845417;28;20694;-71
2024/03/22 02:38:59;;;;;;;8.10;5.47;;;;;;;;;;5845657;28;20053;-71
2024/03/22 02:41:48;;;;;;;8.88;5.50;;;;;;;;;;5845158;28;20064;-71
2024/03/22 02:44:42;;;;;;;7.55;5.13;;;;;;;;;;5861549;28;20049;-71
2024/03/22 02:47:32;;;;;;;11.88;5.93;;;;;;;;;;5862136;28;20056;-71
2024/03/22 02:50:22;;;;;;;14.77;6.85;;;;;;;;;;5878136;28;20140;-72
2024/03/22 02:53:11;;;;;;;12.38;5.63;;;;;;;;;;5845369;28;20050;-71
2024/03/22 02:56:01;;;;;;;9.25;5.60;;;;;;;;;;5844962;28;20426;-72
2024/03/22 02:58:51;;;;;;;9.38;5.95;;;;;;;;;;5845586;28;20045;-71
2024/03/22 03:01:40;;;;;;;8.88;5.60;;;;;;;;;;5844748;28;20053;-71
2024/03/22 03:04:30;;;;;;;7.78;5.10;;;;;;;;;;5845058;28;20041;-71
2024/03/22 03:07:20;;;;;;;6.88;4.82;;;;;;;;;;5842348;28;20122;-71
2024/03/22 03:10:10;;;;;;;9.23;5.70;;;;;;;;;;5838396;28;20053;-72
2024/03/22 03:13:00;;;;;;;9.35;6.13;;;;;;;;;;5806364;28;20069;-71
2024/03/22 03:15:49;;;;;;;6.47;4.18;;;;;;;;;;5844817;28;20045;-71
2024/03/22 03:18:41;;;;;;;7.75;4.82;;;;;;;;;;5861163;28;20045;-71
2024/03/22 03:21:30;;;;;;;9.90;5.70;;;;;;;;;;5844890;28;20050;-71
2024/03/22 03:24:20;;;;;;;7.03;5.57;;;;;;;;;;5844613;28;20059;-71
2024/03/22 03:27:10;;;;;;;8.57;6.15;;;;;;;;;;5877664;28;20464;-71
2024/03/22 03:30:00;;;;;;;7.75;5.10;;;;;;;;;;5877870;28;20445;-71
2024/03/22 03:32:50;;;;;;;6.45;5.13;;;;;;;;;;5845168;28;20049;-71
2024/03/22 03:35:40;;;;;;;9.77;5.50;;;;;;;;;;5839301;28;20048;-71
2024/03/22 03:38:29;;;;;;;12.18;5.80;;;;;;;;;;5837663;28;20057;-71
2024/03/22 03:41:19;;;;;;;6.45;5.43;;;;;;;;;;5838164;28;20408;-71
2024/03/22 03:44:09;;;;;;;7.50;5.55;;;;;;;;;;5838055;28;20049;-71
2024/03/22 03:47:01;;;;;;;8.77;5.57;;;;;;;;;;5838302;28;20049;-71
2024/03/22 03:49:52;;;;;;;9.50;5.47;;;;;;;;;;5845887;28;20045;-71
2024/03/22 03:52:42;;;;;;;13.90;5.88;;;;;;;;;;5859851;28;20042;-71
2024/03/22 03:55:32;;;;;;;6.10;4.85;;;;;;;;;;5828180;28;20045;-71
2024/03/22 03:58:22;;;;;;;6.22;5.35;;;;;;;;;;5862429;28;20052;-71
2024/03/22 04:01:11;;;;;;;10.75;5.38;;;;;;;;;;5865286;28;20052;-71
2024/03/22 04:04:03;;;;;;;12.00;6.97;;;;;;;;;;5848666;28;20053;-72
2024/03/22 04:06:53;;;;;;;14.30;5.47;;;;;;;;;;5882152;28;20081;-71
2024/03/22 04:09:42;;;;;;;4.97;3.75;;;;;;;;;;5848591;28;20159;-71
2024/03/22 04:12:32;;;;;;;8.75;5.20;;;;;;;;;;5881529;28;20041;-71
2024/03/22 04:15:22;;;;;;;8.70;5.57;;;;;;;;;;5881629;28;20117;-71
2024/03/22 04:18:12;;;;;;;9.05;4.88;;;;;;;;;;5848507;28;20588;-71
2024/03/22 04:21:01;;;;;;;11.82;5.72;;;;;;;;;;5881519;28;20049;-72
2024/03/22 04:23:51;;;;;;;8.63;5.72;;;;;;;;;;5865279;28;20048;-71
2024/03/22 04:26:41;;;;;;;11.18;5.72;;;;;;;;;;5848004;28;20045;-71
2024/03/22 04:29:31;;;;;;;5.93;5.03;;;;;;;;;;5848085;28;20404;-71
2024/03/22 04:32:20;;;;;;;6.97;5.50;;;;;;;;;;5846397;28;20089;-72
2024/03/22 04:35:10;;;;;;;7.13;5.03;;;;;;;;;;5841185;28;20075;-71
2024/03/22 04:38:00;;;;;;;6.50;4.30;;;;;;;;;;5845857;28;20053;-71
2024/03/22 04:40:50;;;;;;;6.88;5.50;;;;;;;;;;5829854;28;20416;-71
2024/03/22 04:43:40;;;;;;;11.52;6.18;;;;;;;;;;5845778;28;20084;-71
2024/03/22 04:46:30;;;;;;;11.85;5.15;;;;;;;;;;5845726;28;20400;-71
2024/03/22 04:49:19;;;;;;;5.75;4.53;;;;;;;;;;5863351;28;20132;-71
2024/03/22 04:52:09;;;;;;;6.47;4.38;;;;;;;;;;5847961;28;20057;-72
2024/03/22 04:55:01;;;;;;;16.75;5.72;;;;;;;;;;5831921;28;20057;-71
2024/03/22 04:57:52;;;;;;;9.50;5.05;;;;;;;;;;5831992;28;20045;-71
2024/03/22 05:00:43;;;;;;;8.60;4.32;;;;;;;;;;5839447;28;20049;-71
2024/03/22 05:03:33;;;;;;;9.10;5.07;;;;;;;;;;5847667;28;20049;-71
2024/03/22 05:06:22;;;;;;;7.38;4.40;;;;;;;;;;5847268;28;20511;-72
2024/03/22 05:09:12;;;;;;;8.27;6.10;;;;;;;;;;5863858;28;20049;-71
2024/03/22 05:12:02;;;;;;;6.00;5.15;;;;;;;;;;5847423;28;20088;-72
2024/03/22 05:14:52;;;;;;;6.80;5.15;;;;;;;;;;5864274;28;20525;-71
2024/03/22 05:17:43;;;;;;;7.15;5.18;;;;;;;;;;5847039;28;20506;-71
2024/03/22 05:20:32;;;;;;;8.00;5.55;;;;;;;;;;5847451;28;20519;-71
2024/03/22 05:23:22;;;;;;;7.55;4.75;;;;;;;;;;5863456;28;20060;-72
2024/03/22 05:26:12;;;;;;;8.57;5.38;;;;;;;;;;5846815;28;20045;-71
2024/03/22 05:29:02;;;;;;;9.18;5.63;;;;;;;;;;5846995;28;20064;-72
2024/03/22 05:31:52;;;;;;;10.48;6.57;;;;;;;;;;5863761;28;20053;-71
2024/03/22 05:34:42;;;;;;;8.73;5.82;;;;;;;;;;5846922;28;20048;-71
2024/03/22 05:37:33;;;;;;;7.43;5.28;;;;;;;;;;5846703;28;20048;-71
2024/03/22 05:40:23;;;;;;;8.18;5.65;;;;;;;;;;5863020;28;20407;-71
2024/03/22 05:43:12;;;;;;;20.40;4.97;;;;;;;;;;5846553;28;20054;-72
2024/03/22 05:46:02;;;;;;;6.72;4.25;;;;;;;;;;5863106;28;20058;-72
2024/03/22 05:48:52;;;;;;;5.45;4.18;;;;;;;;;;5863090;28;20045;-71
2024/03/22 05:51:42;;;;;;;7.57;4.55;;;;;;;;;;5862711;28;20056;-71
2024/03/22 05:54:32;;;;;;;6.45;4.85;;;;;;;;;;5814053;28;20045;-71
2024/03/22 05:57:21;;;;;;;9.32;5.93;;;;;;;;;;5862620;28;20100;-71
2024/03/22 06:00:13;;;;;;;10.43;5.25;;;;;;;;;;5830197;28;20076;-71
2024/03/22 06:03:03;;;;;;;13.57;6.07;;;;;;;;;;5862852;28;20060;-72
2024/03/22 06:05:56;;;;;;;11.65;6.72;;;;;;;;;;5862823;28;20052;-71
2024/03/22 06:08:52;;;;;;;5.65;4.63;;;;;;;;;;5846563;28;20144;-71
2024/03/22 06:11:43;;;;;;;7.45;5.72;;;;;;;;;;5846718;28;20065;-71
2024/03/22 06:14:33;;;;;;;6.25;4.88;;;;;;;;;;5862172;28;20049;-71
2024/03/22 06:17:23;;;;;;;5.85;3.60;;;;;;;;;;5845821;28;20099;-71
2024/03/22 06:20:13;;;;;;;14.93;6.13;;;;;;;;;;5845288;28;20515;-72
2024/03/22 06:23:03;;;;;;;6.80;4.20;;;;;;;;;;5862145;28;20053;-72
2024/03/22 06:25:56;;;;;;;5.78;4.22;;;;;;;;;;5862546;28;20444;-71
2024/03/22 06:28:46;;;;;;;6.88;5.32;;;;;;;;;;5845223;28;20048;-71
2024/03/22 06:31:36;;;;;;;8.40;5.20;;;;;;;;;;5845568;28;20095;-71
2024/03/22 06:34:26;;;;;;;8.52;4.97;;;;;;;;;;5845150;28;20069;-71
2024/03/22 06:37:15;;;;;;;10.98;6.60;;;;;;;;;;5845168;28;20049;-71
2024/03/22 06:40:07;;;;;;;6.97;4.90;;;;;;;;;;5845396;28;20119;-72
2024/03/22 06:42:58;;;;;;;9.23;5.85;;;;;;;;;;5862285;28;20439;-71
2024/03/22 06:45:47;;;;;;;6.57;4.93;;;;;;;;;;5845244;28;20052;-71
2024/03/22 06:48:37;;;;;;;9.40;6.32;;;;;;;;;;5845262;28;20499;-71
2024/03/22 06:51:27;;;;;;;11.82;5.43;;;;;;;;;;5845062;28;20042;-72
2024/03/22 06:54:17;;;;;;;7.28;4.75;;;;;;;;;;5845509;28;20414;-72
2024/03/22 06:57:07;;;;;;;6.40;5.70;;;;;;;;;;5861421;28;20509;-72
2024/03/22 06:59:56;;;;;;;10.13;6.60;;;;;;;;;;5845696;28;20053;-71
2024/03/22 07:02:46;;;;;;;7.30;5.78;;;;;;;;;;5861501;28;20044;-72
2024/03/22 07:05:36;;;;;;;8.77;7.15;;;;;;;;;;5845025;28;20045;-71
2024/03/22 07:08:26;;;;;;;13.20;5.18;;;;;;;;;;5861495;28;20064;-72
2024/03/22 07:11:16;;;;;;;10.73;6.50;;;;;;;;;;5861387;28;20678;-71
2024/03/22 07:14:05;;;;;;;13.07;7.35;;;;;;;;;;5844876;28;20539;-72
2024/03/22 07:16:55;;;;;;;8.73;6.40;;;;;;;;;;5829536;28;20045;-71
2024/03/22 07:19:45;;;;;;;9.50;6.28;;;;;;;;;;5861374;28;20064;-72
2024/03/22 07:22:35;;;;;;;8.38;6.72;;;;;;;;;;5845209;28;20076;-71
2024/03/22 07:25:24;;;;;;;9.15;5.60;;;;;;;;;;5861319;28;20385;-72
2024/03/22 07:28:15;;;;;;;10.07;6.20;;;;;;;;;;5844479;28;20045;-72
2024/03/22 07:31:05;;;;;;;9.98;5.80;;;;;;;;;;5844625;28;20045;-72
2024/03/22 07:33:55;;;;;;;9.60;7.38;;;;;;;;;;5847638;28;20045;-71
2024/03/22 07:36:45;;;;;;;13.80;7.18;;;;;;;;;;5865597;28;20488;-72
2024/03/22 07:39:35;;;;;;;9.95;7.65;;;;;;;;;;5865868;28;20300;-71
2024/03/22 07:42:24;;;;;;;13.77;7.45;;;;;;;;;;5865438;28;20061;-72
2024/03/22 07:45:14;;;;;;;14.75;8.23;;;;;;;;;;5832434;28;20435;-71
2024/03/22 07:48:04;;;;;;;12.50;8.25;;;;;;;;;;5849001;28;20103;-72
2024/03/22 07:50:59;;;;;;;14.57;8.48;;;;;;;;;;5849384;28;20037;-71
2024/03/22 07:53:48;;;;;;;12.27;6.57;;;;;;;;;;5848536;28;20479;-71
2024/03/22 07:56:38;;;;;;;11.88;7.47;;;;;;;;;;5865333;28;20062;-71
2024/03/22 07:59:28;;;;;;;11.73;6.60;;;;;;;;;;5865081;28;20041;-71
2024/03/22 08:02:18;;;;;;;12.30;6.85;;;;;;;;;;5865316;28;20042;-72
2024/03/22 08:05:07;;;;;;;8.38;5.97;;;;;;;;;;5865153;28;20046;-72
2024/03/22 08:07:57;;;;;;;18.80;6.93;;;;;;;;;;5849235;28;20053;-71
2024/03/22 08:10:47;;;;;;;8.18;5.57;;;;;;;;;;5865022;28;20045;-72
2024/03/22 08:13:37;;;;;;;7.57;5.00;;;;;;;;;;5848560;28;20041;-72
2024/03/22 08:16:27;;;;;;;5.05;3.80;;;;;;;;;;5848636;28;20532;-71
2024/03/22 08:19:17;;;;;;;8.88;5.53;;;;;;;;;;5848326;28;20475;-71
2024/03/22 08:22:07;;;;;;;9.13;5.32;;;;;;;;;;5864855;28;20071;-72
2024/03/22 08:24:56;;;;;;;8.77;5.13;;;;;;;;;;5848813;28;20045;-71
2024/03/22 08:27:47;;;;;;;8.95;5.40;;;;;;;;;;5864386;28;20049;-71
2024/03/22 08:30:40;;;;;;;11.98;6.32;;;;;;;;;;5848198;28;20047;-72
2024/03/22 08:33:30;;;;;;;7.20;4.30;;;;;;;;;;5848205;28;20037;-72
2024/03/22 08:36:20;;;;;;;9.43;4.70;;;;;;;;;;5864722;28;20092;-71
2024/03/22 08:39:10;;;;;;;7.05;3.38;;;;;;;;;;5848230;28;20073;-71
2024/03/22 08:42:00;;;;;;;15.45;4.35;;;;;;;;;;5864918;28;20045;-72
2024/03/22 08:44:49;;;;;;;5.35;3.95;;;;;;;;;;5847466;28;20129;-71
2024/03/22 08:47:40;;;;;;;8.10;5.38;;;;;;;;;;5847747;28;20506;-71
2024/03/22 08:50:30;;;;;;;5.15;3.92;;;;;;;;;;5847910;28;20092;-71
2024/03/22 08:53:20;;;;;;;5.05;4.25;;;;;;;;;;5864050;28;20051;-71
2024/03/22 08:56:10;;;;;;;7.32;4.90;;;;;;;;;;5864114;28;20049;-72
2024/03/22 08:59:00;;;;;;;4.50;3.40;;;;;;;;;;5864045;28;20045;-73
2024/03/22 09:01:50;;;;;;;6.40;4.93;;;;;;;;;;5864466;28;20064;-71
2024/03/22 09:04:40;;;;;;;4.18;3.00;;;;;;;;;;5847502;28;20041;-72
2024/03/22 09:07:30;;;;;;;9.38;4.70;;;;;;;;;;5847520;28;20045;-71
2024/03/22 09:10:19;;;;;;;10.20;5.13;;;;;;;;;;5831273;28;20116;-72
2024/03/22 09:13:12;;;;;;;6.90;3.58;;;;;;;;;;5830971;28;20050;-72
2024/03/22 09:16:02;;;;;;;6.43;3.97;;;;;;;;;;5847538;28;20435;-72
2024/03/22 09:18:52;;;;;;;15.98;8.65;;;;;;;;;;5847767;28;20045;-72
2024/03/22 09:21:42;;;;;;;6.53;4.15;;;;;;;;;;5847211;28;20563;-71
2024/03/22 09:24:32;;;;;;;3.60;2.70;;;;;;;;;;5847278;28;20045;-71
2024/03/22 09:27:22;;;;;;;10.63;4.65;;;;;;;;;;5846873;28;20041;-72
2024/03/22 09:30:13;;;;;;;6.15;4.28;;;;;;;;;;5863406;28;20458;-72
2024/03/22 09:33:03;;;;;;;6.47;3.85;;;;;;;;;;5830783;28;20056;-72
2024/03/22 09:35:53;;;;;;;8.50;4.35;;;;;;;;;;5863788;28;20053;-72
2024/03/22 09:38:43;;;;;;;4.90;4.13;;;;;;;;;;5830361;28;20117;-72
2024/03/22 09:41:33;;;;;;;6.57;3.38;;;;;;;;;;5846901;28;20044;-72
2024/03/22 09:44:23;;;;;;;8.55;4.22;;;;;;;;;;5863028;28;20048;-72
2024/03/22 09:47:15;;;;;;;5.38;3.65;;;;;;;;;;5846531;28;20053;-71
2024/03/22 09:50:07;;;;;;;5.68;3.58;;;;;;;;;;5862970;28;20049;-72
2024/03/22 09:52:58;;;;;;;6.45;3.63;;;;;;;;;;5863662;28;20385;-71
2024/03/22 09:55:49;;;;;;;4.57;3.38;;;;;;;;;;5829169;28;20061;-71
2024/03/22 09:58:41;;;;;;;2.65;2.13;;;;;;;;;;5846296;28;20057;-71
2024/03/22 10:01:31;;;;;;;10.32;7.70;;;;;;;;;;5846200;28;20088;-72
2024/03/22 10:04:21;;;;;;;7.13;4.35;;;;;;;;;;5846209;28;20049;-71
2024/03/22 10:07:11;;;;;;;6.05;3.97;;;;;;;;;;5846138;28;20052;-71
2024/03/22 10:10:01;;;;;;;4.78;2.67;;;;;;;;;;5846075;28;20100;-72
2024/03/22 10:12:52;;;;;;;3.35;2.88;;;;;;;;;;5830299;28;20478;-72
2024/03/22 10:15:42;;;;;;;5.32;4.13;;;;;;;;;;5845947;28;20088;-71
2024/03/22 10:18:33;;;;;;;6.78;3.60;;;;;;;;;;5845931;28;20135;-72
2024/03/22 10:21:23;;;;;;;11.98;5.20;;;;;;;;;;5845924;28;20041;-72
2024/03/22 10:24:14;;;;;;;3.22;2.88;;;;;;;;;;5845692;28;20049;-72
2024/03/22 10:27:04;;;;;;;2.67;2.47;;;;;;;;;;5845853;28;20418;-72
2024/03/22 10:29:53;;;;;;;9.90;3.40;;;;;;;;;;5862442;28;20041;-72
2024/03/22 10:32:44;;;;;;;5.45;3.05;;;;;;;;;;5845885;28;20041;-72
2024/03/22 10:35:35;;;;;;;7.85;4.03;;;;;;;;;;5845659;28;20048;-72
2024/03/22 10:38:26;;;;;;;5.75;3.50;;;;;;;;;;5845471;28;20042;-71
2024/03/22 10:41:16;;;;;;;4.60;3.10;;;;;;;;;;5845643;28;20053;-72
2024/03/22 10:44:08;;;;;;;6.80;3.97;;;;;;;;;;5861815;28;20060;-72
2024/03/22 10:47:04;;;;;;;5.22;3.85;;;;;;;;;;5829931;28;20060;-71
2024/03/22 10:50:11;;;;;;;15.27;3.58;;;;;;;;;;5846016;28;20499;-72
2024/03/22 10:53:06;;;;;;;2.50;2.30;;;;;;;;;;5846286;28;20080;-72
2024/03/22 10:55:59;;;;;;;9.15;2.42;;;;;;;;;;5846472;28;20068;-71
2024/03/22 10:58:52;;;;;;;3.55;3.13;;;;;;;;;;5845724;28;20057;-72
2024/03/22 11:01:46;;;;;;;3.13;2.63;;;;;;;;;;5829398;28;20045;-71
2024/03/22 11:04:35;;;;;;;3.42;2.50;;;;;;;;;;5844993;28;20041;-72
2024/03/22 11:07:30;;;;;;;4.93;2.97;;;;;;;;;;5844764;28;20523;-72
2024/03/22 11:10:20;;;;;;;3.92;3.00;;;;;;;;;;5828604;28;20049;-72
2024/03/22 11:13:10;;;;;;;7.68;3.65;;;;;;;;;;5844904;28;20053;-72
2024/03/22 11:15:59;;;;;;;4.35;2.90;;;;;;;;;;5828999;28;20064;-72
2024/03/22 11:18:49;;;;;;;2.63;2.22;;;;;;;;;;5828299;28;20138;-72
2024/03/22 11:21:39;;;;;;;13.60;3.80;;;;;;;;;;5844897;28;20049;-72
2024/03/22 11:24:29;;;;;;;8.50;5.27;;;;;;;;;;5861259;28;20104;-72
2024/03/22 11:27:19;;;;;;;10.25;5.72;;;;;;;;;;5861346;28;20094;-72
2024/03/22 11:30:09;;;;;;;10.20;6.20;;;;;;;;;;5844669;28;20573;-72
2024/03/22 11:33:03;;;;;;;11.18;6.40;;;;;;;;;;5845252;28;20496;-72
2024/03/22 11:35:53;;;;;;;11.88;6.57;;;;;;;;;;5845149;28;20072;-72
2024/03/22 11:38:43;;;;;;;8.57;5.95;;;;;;;;;;5844738;28;20037;-72
2024/03/22 11:41:34;;;;;;;8.45;5.57;;;;;;;;;;5844895;28;20053;-72
2024/03/22 11:44:25;;;;;;;7.90;5.15;;;;;;;;;;5828555;28;20549;-72
2024/03/22 11:47:15;;;;;;;6.97;4.60;;;;;;;;;;5844266;28;20056;-72
2024/03/22 11:50:05;;;;;;;9.10;5.80;;;;;;;;;;5844834;28;20042;-72
2024/03/22 11:52:56;;;;;;;10.05;5.10;;;;;;;;;;5845222;28;20050;-71
2024/03/22 12:00:18;;;;;;;6.20;3.95;;;;;;;;;;5861192;28;20056;-72
2024/03/22 12:03:09;;;;;;;7.28;3.53;;;;;;;;;;5844531;28;20072;-72
2024/03/22 12:05:59;;;;;;;5.60;3.30;;;;;;;;;;5828477;28;20088;-72
2024/03/22 12:08:48;;;;;;;7.15;4.53;;;;;;;;;;5844477;28;20037;-72
2024/03/22 12:11:39;;;;;;;8.30;4.30;;;;;;;;;;5844523;28;20056;-72
2024/03/22 12:14:29;;;;;;;9.02;5.07;;;;;;;;;;5860641;28;20411;-71
2024/03/22 12:17:19;;;;;;;14.00;4.80;;;;;;;;;;5828031;28;20054;-72
2024/03/22 12:20:09;;;;;;;12.05;6.90;;;;;;;;;;5863643;28;20504;-72
2024/03/22 12:22:59;;;;;;;10.15;6.15;;;;;;;;;;5849491;28;20049;-72
2024/03/22 12:25:51;;;;;;;13.25;8.18;;;;;;;;;;5848386;28;20099;-72
2024/03/22 12:28:41;;;;;;;10.00;6.85;;;;;;;;;;5848828;28;20045;-72
2024/03/22 12:31:31;;;;;;;11.23;7.10;;;;;;;;;;5848594;28;20132;-72
2024/03/22 12:34:20;;;;;;;11.38;7.13;;;;;;;;;;5864803;28;20049;-72
2024/03/22 12:37:10;;;;;;;7.82;5.05;;;;;;;;;;5848408;28;20388;-72
2024/03/22 12:40:00;;;;;;;32.90;8.32;;;;;;;;;;5848601;28;20049;-72
2024/03/22 12:42:50;;;;;;;17.45;10.07;;;;;;;;;;5856796;28;20053;-72
2024/03/22 12:45:40;;;;;;;18.98;12.50;;;;;;;;;;5847594;28;20041;-72
2024/03/22 12:48:30;;;;;;;32.00;15.95;;;;;;;;;;5848418;28;20236;-72
2024/03/22 12:51:20;;;;;;;28.08;14.27;;;;;;;;;;5847864;28;20056;-72
2024/03/22 12:54:10;;;;;;;24.17;13.75;;;;;;;;;;5847837;28;20049;-72
2024/03/22 12:57:01;;;;;;;30.10;16.85;;;;;;;;;;5848315;28;20458;-72
2024/03/22 12:59:51;;;;;;;25.40;11.55;;;;;;;;;;5825519;28;20467;-72
2024/03/22 13:02:41;;;;;;;24.23;11.40;;;;;;;;;;5846778;28;20131;-72
2024/03/22 13:05:31;;;;;;;16.67;10.13;;;;;;;;;;5831535;28;20048;-71
2024/03/22 13:08:21;;;;;;;12.68;7.57;;;;;;;;;;5847674;28;20041;-72
2024/03/22 13:11:11;;;;;;;6.47;5.03;;;;;;;;;;5863996;28;20045;-72
2024/03/22 13:14:01;;;;;;;8.77;6.18;;;;;;;;;;5847115;28;20082;-72
2024/03/22 13:16:51;;;;;;;7.43;5.38;;;;;;;;;;5817249;28;20045;-71
2024/03/22 13:19:42;;;;;;;14.00;5.68;;;;;;;;;;5862757;28;20046;-71
2024/03/22 13:22:32;;;;;;;18.30;12.00;;;;;;;;;;5847865;28;20051;-72
2024/03/22 13:25:22;;;;;;;5.50;4.43;;;;;;;;;;5848047;28;20494;-71
2024/03/22 13:28:12;;;;;;;8.48;6.65;;;;;;;;;;5846055;28;20042;-72
2024/03/22 13:31:09;;;;;;;8.90;5.05;;;;;;;;;;5823165;28;20042;-72
2024/03/22 13:33:58;;;;;;;12.73;5.03;;;;;;;;;;5825925;28;20053;-72
2024/03/22 13:37:36;;;;;;;7.35;5.18;;;;;;;;;;5809085;28;20096;-72
2024/03/22 13:40:27;;;;;;;10.80;4.25;;;;;;;;;;5843103;28;20401;-71
2024/03/22 13:43:17;;;;;;;6.78;4.68;;;;;;;;;;5824048;28;20057;-71
2024/03/22 13:46:08;;;;;;;6.63;3.67;;;;;;;;;;5839472;28;20480;-72
2024/03/22 13:48:58;;;;;;;4.60;3.60;;;;;;;;;;5825490;28;20056;-71
2024/03/22 13:51:49;;;;;;;16.08;6.82;;;;;;;;;;5840501;28;20050;-71
2024/03/22 13:54:40;;;;;;;6.75;4.22;;;;;;;;;;5845717;28;20110;-71
2024/03/22 13:57:30;;;;;;;8.05;4.68;;;;;;;;;;5846867;28;20065;-71
2024/03/22 14:00:25;;;;;;;7.65;5.43;;;;;;;;;;5847663;28;20041;-72
2024/03/22 14:06:15;;;;;;;11.95;4.40;;;;;;;;;;6277165;22;20053;-70
2024/03/22 14:09:09;;;;;;;6.40;4.10;;;;;;;;;;5819414;28;20052;-71
2024/03/22 14:12:00;;;;;;;6.78;4.30;;;;;;;;;;5824345;28;20418;-71
2024/03/22 14:14:51;;;;;;;10.50;4.35;;;;;;;;;;5807439;28;21054;-72
2024/03/22 14:17:41;;;;;;;6.63;4.95;;;;;;;;;;5808084;28;20057;-70
2024/03/22 14:20:31;;;;;;;4.78;3.92;;;;;;;;;;5836837;28;20455;-71
2024/03/22 14:23:22;;;;;;;6.60;4.20;;;;;;;;;;5823194;28;20050;-71
2024/03/22 14:26:13;;;;;;;9.80;7.13;;;;;;;;;;5820120;28;20050;-71
2024/03/22 14:29:03;;;;;;;8.68;6.30;;;;;;;;;;5821015;28;20041;-71
2024/03/22 14:31:55;;;;;;;9.85;6.82;;;;;;;;;;5816652;28;20060;-71
2024/03/22 14:34:47;;;;;;;22.55;16.25;;;;;;;;;;5771358;28;20050;-72
2024/03/22 14:37:42;;;;;;;38.15;18.38;;;;;;;;;;5800285;28;20510;-71
2024/03/22 14:40:36;;;;;;;5.03;3.33;;;;;;;;;;5784246;28;20057;-71
2024/03/22 14:43:28;;;;;;;5.57;4.65;;;;;;;;;;5797925;28;20529;-71
2024/03/22 14:46:25;;;;;;;7.78;4.25;;;;;;;;;;5826944;28;20049;-71
2024/03/22 14:49:17;;;;;;;6.22;4.40;;;;;;;;;;5845663;28;20046;-71
2024/03/22 14:52:08;;;;;;;7.28;5.75;;;;;;;;;;5813365;28;20045;-71
2024/03/22 14:55:00;;;;;;;4.95;3.50;;;;;;;;;;5845889;28;20052;-71
2024/03/22 14:57:50;;;;;;;5.97;4.95;;;;;;;;;;5829962;28;20118;-71
2024/03/22 15:00:40;;;;;;;9.13;5.43;;;;;;;;;;5845064;28;20418;-71
2024/03/22 15:03:31;;;;;;;20.05;8.65;;;;;;;;;;5862089;28;20045;-72
2024/03/22 15:06:44;;;;;;;6.10;4.55;;;;;;;;;;5844396;28;20048;-71
2024/03/22 15:09:36;;;;;;;14.93;6.20;;;;;;;;;;5844983;28;20046;-71
2024/03/22 15:12:25;;;;;;;8.48;5.13;;;;;;;;;;5812193;28;20073;-71
2024/03/22 15:15:17;;;;;;;9.75;5.78;;;;;;;;;;5844684;28;20048;-71
2024/03/22 15:18:09;;;;;;;6.05;3.80;;;;;;;;;;5844839;28;20399;-71
2024/03/22 15:21:00;;;;;;;9.77;5.93;;;;;;;;;;5829196;28;20053;-71
2024/03/22 15:23:50;;;;;;;15.65;8.07;;;;;;;;;;5844742;28;20045;-71
2024/03/22 15:26:40;;;;;;;13.48;8.05;;;;;;;;;;5843697;28;20080;-71
2024/03/22 15:29:31;;;;;;;10.57;7.07;;;;;;;;;;5844908;28;20045;-71
2024/03/22 15:32:23;;;;;;;7.18;5.72;;;;;;;;;;5844767;28;20103;-73
2024/03/22 15:35:13;;;;;;;13.40;6.30;;;;;;;;;;5844822;28;20108;-73
2024/03/22 15:38:03;;;;;;;10.63;6.43;;;;;;;;;;5844677;28;20479;-73
2024/03/22 15:40:53;;;;;;;9.27;6.05;;;;;;;;;;5845101;28;20057;-74
2024/03/22 15:43:43;;;;;;;25.27;8.00;;;;;;;;;;5844740;28;20046;-74
2024/03/22 15:46:33;;;;;;;12.80;9.35;;;;;;;;;;5844295;28;20064;-74
2024/03/22 15:49:22;;;;;;;9.48;6.13;;;;;;;;;;5844469;28;20041;-71
2024/03/22 16:19:21;;;;;;;11.55;7.97;;;;;;;;;;5865625;28;20076;-70
2024/03/22 16:22:12;;;;;;;12.98;7.45;;;;;;;;;;5848504;28;20418;-70
2024/03/22 16:25:01;;;;;;;26.15;16.65;;;;;;;;;;5848493;28;20053;-70
2024/03/22 16:27:51;;;;;;;25.10;15.60;;;;;;;;;;5848948;28;20052;-71
2024/03/22 16:30:41;;;;;;;34.67;16.80;;;;;;;;;;5848332;28;20053;-73
2024/03/22 16:33:32;;;;;;;33.40;19.80;;;;;;;;;;5832041;28;20053;-73
2024/03/22 16:36:22;;;;;;;27.55;18.45;;;;;;;;;;5848420;28;20115;-70
2024/03/22 16:39:12;;;;;;;23.58;14.93;;;;;;;;;;5848107;28;20061;-73
2024/03/22 16:42:03;;;;;;;29.38;16.98;;;;;;;;;;5847939;28;20053;-70
2024/03/22 16:44:52;;;;;;;21.90;11.98;;;;;;;;;;5864957;28;20053;-73
2024/03/22 16:47:43;;;;;;;9.15;7.18;;;;;;;;;;5847976;28;20048;-73
2024/03/22 16:50:33;;;;;;;12.30;7.80;;;;;;;;;;5848071;28;20057;-72
2024/03/22 16:53:23;;;;;;;7.70;5.68;;;;;;;;;;5847956;28;20664;-73
2024/03/22 16:56:12;;;;;;;12.57;5.22;;;;;;;;;;5847858;28;20075;-73
2024/03/22 16:59:02;;;;;;;8.70;3.97;;;;;;;;;;5848057;28;20107;-73
2024/03/22 17:01:52;;;;;;;13.88;6.57;;;;;;;;;;5847992;28;20085;-73
2024/03/22 17:04:42;;;;;;;9.75;5.47;;;;;;;;;;5847537;28;20050;-73
2024/03/22 17:07:31;;;;;;;10.23;5.40;;;;;;;;;;5847608;28;20551;-73
2024/03/22 17:10:21;;;;;;;8.60;4.60;;;;;;;;;;5847324;28;20495;-73
2024/03/22 17:13:11;;;;;;;11.52;6.80;;;;;;;;;;5831059;28;20136;-73
2024/03/22 17:16:01;;;;;;;12.55;5.65;;;;;;;;;;5847387;28;20112;-72
2024/03/22 17:18:55;;;;;;;11.88;6.90;;;;;;;;;;5847773;28;20503;-73
2024/03/22 17:21:44;;;;;;;17.30;7.85;;;;;;;;;;5847007;28;20071;-73
2024/03/22 17:24:34;;;;;;;14.13;9.45;;;;;;;;;;5847325;28;20056;-73
2024/03/22 17:27:24;;;;;;;13.52;9.93;;;;;;;;;;5847157;28;20107;-73